world map with URC marked

URC - Airport

This information may not be accurate or current and is not valid for navigation or flight planning. No warranty of fitness for any purpose is made or implied.

flag of China

Donate via PayPal

Additional information is available on the NEW Great Circle Mapper

Location
City:  Ürümqi, Xinjiang, China
Name:Ürümqi Diwopu International Airport
ICAO / IATA:ZWWW / URC

Details
Type:Airport (Aerodrome, Airfield)
Use:Public/Civil
Latitude:43°54'N (43.908)
Longitude:87°28'E (87.475)
Elevation:2126 ft (648 m)
Runways:1
Longest:11811 × 148 ft (3600 × 45 m)

Time
Timezone:UTC+8 (DST+10)
Local Time:

Weather
METAR:ZWWW  041400Z 28001MPS 1600 FU NSC M17/M19 Q1023 BECMG TL1430 1400 BR
TAF:ZWWW  (expired)

Related Locations
Nearby:
Farthest:SCQU: 11519 mi / 18537 km
Quellon [Inio Airport], LL, CL

Find:

   beyond  
but within

Other Information
Maps:
Sources:

  


 


Great Circle Mapper   Great Circle Mapper
Great Circle Mapper FAQ   Great Circle Mapper FAQ
  Karl's Home Page
KLS²   KLS² Home
   GC on Facebook
Airlines of the World   Airlines of the World
Donate via PayPal


Copyright © 2004-2019, Karl L. Swartz. All rights reserved.
All trademarks mentioned herein belong to their respective owners.

Please see credits for attribution and copyright information.

Karl Swartz <karl@kls2.com>
  Powered by FreeBSD
Valid HTML 4.01!
Labeled with ICRA
hCard Microformat
Geo Microformat